Thunder radar more information blitzortung!


Radar de pluja more information rain snow radar


Visita la nostra xarxa de llocs de meteo:

Template documentation
and downloads

And another site



No particular awareness of the weather is required.    There are no Weather-warnings

Pagina Historial Weather Underground text

Diari Resum Juliol 7, 2017 Unitats:  Imperial    Mètric   Tant
« Previous Dia
SegĂźent Dia »
Diari Setmana Mensual Anual Personalitzada
  Maxima: Minima: Media:
Temperatura: TemperatureC °F 20.4 °F 29 °F
Punt de rosada: DewpointC °F 9.3 °F 12.4 °F
Humitat: Humidity % 26 % 38 %
Wind Speed: WindSpeedKMH mph 0.0 mph 8.6 mph
RĂ fegues de vent: WindSpeedGustKMH mph - -
Vent:- - East
Pression baro: PressurehPa in 1012.8 in -
Precipitacions: 0.0 in    
Historical Graphs
 
 
Dades de taula per Juliol 7, 2017
Temps Temperatura Punt de rosada Pression baro Vent Wind Speed RĂ fegues de vent Humitat Rainfall Rate (Hourly)
TemperatureC °F DewpointC °F PressurehPa in Calm     Humidity % HourlyPrecipMM in
00:04 24.3 °F 17.6 °F 1016.8 in NNE 5.0 mph 5.0 mph 66 % 0.0 in
00:05 21.4 °F 15.5 °F 1014.8 in NE 1.6 mph 4.8 mph 69 % 0.0 in
00:15 21.2 °F 15.3 °F 1015.8 in Calm     69 % 0.0 in
00:25 21.2 °F 15.3 °F 1015.8 in Calm     69 % 0.0 in
00:35 21.1 °F 15.2 °F 1015.8 in Calm     69 % 0.0 in
00:45 21.0 °F 14.9 °F 1015.8 in Calm   3.2 mph 68 % 0.0 in
00:55 21.1 °F 14.7 °F 1015.8 in Calm   1.6 mph 67 % 0.0 in
01:05 21.0 °F 14.6 °F 1016.8 in Calm   1.6 mph 67 % 0.0 in
01:15 20.8 °F 14.7 °F 1016.8 in WNW 1.6 mph 1.6 mph 68 % 0.0 in
01:25 20.6 °F 14.5 °F 1016.8 in West 1.6 mph 3.2 mph 68 % 0.0 in
01:35 20.5 °F 14.4 °F 1016.8 in Calm   1.6 mph 68 % 0.0 in
01:45 20.5 °F 14.4 °F 1017.8 in Calm     68 % 0.0 in
01:55 20.4 °F 14.3 °F 1017.8 in West 3.2 mph 3.2 mph 68 % 0.0 in
02:05 20.4 °F 14.3 °F 1017.8 in Calm   3.2 mph 68 % 0.0 in
02:15 20.8 °F 14.9 °F 1016.8 in WSW 1.6 mph 3.2 mph 69 % 0.0 in
02:25 21.2 °F 15.1 °F 1016.8 in NE 1.6 mph 3.2 mph 68 % 0.0 in
02:35 21.4 °F 15.0 °F 1017.8 in NE 1.6 mph 3.2 mph 67 % 0.0 in
02:45 21.9 °F 15.3 °F 1017.8 in NE 1.6 mph 4.8 mph 66 % 0.0 in
02:55 22.2 °F 15.3 °F 1017.8 in NE 1.6 mph 1.6 mph 65 % 0.0 in
03:05 23.0 °F 15.6 °F 1017.8 in ESE 4.8 mph 4.8 mph 63 % 0.0 in
03:15 23.0 °F 15.1 °F 1016.8 in East 4.8 mph 4.8 mph 61 % 0.0 in
03:25 22.9 °F 15.0 °F 1016.8 in NE 4.8 mph 4.8 mph 61 % 0.0 in
03:35 22.9 °F 14.7 °F 1016.8 in NNE 8.0 mph 8.0 mph 60 % 0.0 in
03:45 22.9 °F 14.4 °F 1016.8 in NNE 4.8 mph 8.0 mph 59 % 0.0 in
03:55 23.0 °F 14.6 °F 1016.8 in NE 3.2 mph 4.8 mph 59 % 0.0 in
04:05 23.8 °F 15.1 °F 1017.8 in NNE 4.8 mph 6.4 mph 58 % 0.0 in
04:15 24.2 °F 14.9 °F 1016.8 in NNE 4.8 mph 6.4 mph 56 % 0.0 in
04:25 25.0 °F 15.1 °F 1016.8 in ENE 1.6 mph 6.4 mph 54 % 0.0 in
04:35 25.7 °F 15.4 °F 1016.8 in East 1.6 mph 4.8 mph 53 % 0.0 in
04:45 26.4 °F 15.8 °F 1016.8 in ENE 3.2 mph 6.4 mph 52 % 0.0 in
04:55 26.9 °F 15.9 °F 1016.8 in East 4.8 mph 6.4 mph 51 % 0.0 in
05:05 27.4 °F 15.4 °F 1017.8 in ESE 4.8 mph 6.4 mph 48 % 0.0 in
05:15 27.3 °F 15.3 °F 1016.8 in East 4.8 mph 6.4 mph 48 % 0.0 in
05:25 27.7 °F 15.1 °F 1016.8 in ENE 3.2 mph 6.4 mph 46 % 0.0 in
05:35 28.3 °F 15.2 °F 1016.8 in ENE 3.2 mph 4.8 mph 45 % 0.0 in
10:36 28.2 °F 15.5 °F 1016.8 in NNE 5.6 mph 5.6 mph 46 % 0.0 in
10:41 28.8 °F 15.7 °F 1016.8 in NE 5.6 mph 5.6 mph 45 % 0.0 in
10:46 28.8 °F 15.7 °F 1016.8 in East 5.6 mph 5.6 mph 45 % 0.0 in
10:51 29.2 °F 15.7 °F 1016.8 in ENE 3.7 mph 3.7 mph 44 % 0.0 in
10:56 29.4 °F 15.9 °F 1016.8 in NE 5.6 mph 5.6 mph 44 % 0.0 in
11:01 29.9 °F 15.9 °F 1016.8 in ENE 3.7 mph 3.7 mph 43 % 0.0 in
11:02 29.9 °F 15.9 °F 1016.8 in ENE 3.7 mph 3.7 mph 43 % 0.0 in
11:07 30.1 °F 15.4 °F 1016.8 in SSE 9.3 mph 9.3 mph 41 % 0.0 in
11:12 30.0 °F 14.9 °F 1016.8 in ENE 13.0 mph 13.0 mph 40 % 0.0 in
11:17 30.4 °F 15.3 °F 1016.8 in East 9.7 mph 9.7 mph 40 % 0.0 in
11:22 30.5 °F 15.4 °F 1016.8 in ENE 9.7 mph 9.7 mph 40 % 0.0 in
11:27 30.5 °F 15.4 °F 1015.8 in ESE 9.3 mph 9.3 mph 40 % 0.0 in
11:32 31.1 °F 15.1 °F 1015.8 in ENE 14.0 mph 14.0 mph 38 % 0.0 in
11:37 30.9 °F 14.5 °F 1015.8 in ESE 14.8 mph 14.8 mph 37 % 0.0 in
11:42 31.0 °F 14.2 °F 1016.8 in ESE 13.0 mph 13.0 mph 36 % 0.0 in
11:47 31.4 °F 14.9 °F 1016.8 in SE 5.8 mph 6.1 mph 37 % 0.0 in
11:52 31.4 °F 14.6 °F 1016.8 in East 9.5 mph 9.5 mph 36 % 0.0 in
11:57 31.7 °F 14.8 °F 1016.8 in NE 9.3 mph 9.7 mph 36 % 0.0 in
12:02 31.8 °F 14.4 °F 1016.8 in East 10.3 mph 10.3 mph 35 % 0.0 in
12:07 31.4 °F 13.7 °F 1016.8 in ESE 11.1 mph 11.1 mph 34 % 0.0 in
12:12 31.4 °F 13.7 °F 1016.8 in East 14.8 mph 14.8 mph 34 % 0.0 in
12:17 31.7 °F 13.0 °F 1016.8 in ESE 13.0 mph 13.0 mph 32 % 0.0 in
12:22 31.7 °F 12.5 °F 1016.8 in ESE 16.1 mph 16.1 mph 31 % 0.0 in
12:27 32.1 °F 13.3 °F 1015.8 in East 11.1 mph 11.1 mph 32 % 0.0 in
12:32 32.4 °F 13.6 °F 1015.8 in ESE 13.0 mph 13.0 mph 32 % 0.0 in
12:37 32.3 °F 13.5 °F 1015.8 in East 13.0 mph 13.0 mph 32 % 0.0 in
12:42 32.6 °F 13.8 °F 1015.8 in ESE 14.5 mph 14.5 mph 32 % 0.0 in
12:47 32.7 °F 13.8 °F 1015.8 in ENE 14.8 mph 14.8 mph 32 % 0.0 in
12:52 32.7 °F 13.3 °F 1015.8 in East 16.7 mph 16.7 mph 31 % 0.0 in
12:57 32.8 °F 12.9 °F 1015.8 in ENE 20.4 mph 20.4 mph 30 % 0.0 in
13:02 32.9 °F 13.1 °F 1015.8 in East 17.5 mph 17.5 mph 30 % 0.0 in
13:07 32.8 °F 13.4 °F 1015.8 in ESE 14.8 mph 14.8 mph 31 % 0.0 in
13:12 32.7 °F 13.3 °F 1015.8 in SE 13.0 mph 13.0 mph 31 % 0.0 in
13:17 32.3 °F 13.0 °F 1015.8 in ESE 16.1 mph 16.1 mph 31 % 0.0 in
13:22 32.7 °F 13.3 °F 1015.8 in SE 15.1 mph 15.1 mph 31 % 0.0 in
13:27 32.5 °F 12.7 °F 1015.8 in NE 20.4 mph 20.4 mph 30 % 0.0 in
13:32 32.5 °F 12.7 °F 1015.8 in East 16.7 mph 16.7 mph 30 % 0.0 in
13:37 32.6 °F 13.3 °F 1015.8 in ESE 7.4 mph 7.6 mph 31 % 0.0 in
13:42 32.4 °F 12.6 °F 1015.8 in SSE 18.5 mph 18.5 mph 30 % 0.0 in
13:47 32.5 °F 12.2 °F 1015.8 in NE 14.8 mph 14.8 mph 29 % 0.0 in
13:52 32.6 °F 12.3 °F 1015.8 in ESE 10.0 mph 10.0 mph 29 % 0.0 in
13:57 32.6 °F 12.3 °F 1015.8 in ESE 16.7 mph 16.7 mph 29 % 0.0 in
14:02 32.8 °F 12.4 °F 1015.8 in SE 11.1 mph 11.1 mph 29 % 0.0 in
14:07 32.7 °F 11.8 °F 1015.8 in ENE 13.0 mph 13.0 mph 28 % 0.0 in
14:12 33.0 °F 12.1 °F 1015.8 in ENE 14.8 mph 14.8 mph 28 % 0.0 in
14:17 33.2 °F 12.2 °F 1015.8 in ENE 14.8 mph 14.8 mph 28 % 0.0 in
14:22 33.1 °F 12.2 °F 1015.8 in East 11.9 mph 11.9 mph 28 % 0.0 in
14:27 33.2 °F 12.2 °F 1015.8 in East 18.5 mph 18.5 mph 28 % 0.0 in
14:32 32.8 °F 11.9 °F 1015.8 in East 13.0 mph 13.0 mph 28 % 0.0 in
14:37 32.7 °F 11.8 °F 1015.8 in ESE 14.8 mph 14.8 mph 28 % 0.0 in
14:42 32.7 °F 12.3 °F 1015.8 in SE 7.4 mph 7.4 mph 29 % 0.0 in
14:47 33.1 °F 12.2 °F 1015.8 in ESE 5.0 mph 5.0 mph 28 % 0.0 in
14:52 32.2 °F 11.4 °F 1015.8 in SSE 9.3 mph 9.3 mph 28 % 0.0 in
14:57 32.7 °F 12.3 °F 1015.8 in ESE 11.1 mph 11.1 mph 29 % 0.0 in
15:02 33.0 °F 12.6 °F 1015.8 in ESE 9.7 mph 9.7 mph 29 % 0.0 in
15:07 33.3 °F 12.8 °F 1015.8 in SSE 11.1 mph 11.1 mph 29 % 0.0 in
15:12 32.9 °F 12.5 °F 1016.8 in SE 14.8 mph 14.8 mph 29 % 0.0 in
15:17 32.9 °F 12.5 °F 1016.8 in ESE 16.7 mph 16.7 mph 29 % 0.0 in
15:19 32.3 °F 12.0 °F 1016.8 in SSE 13.0 mph 13.0 mph 29 % 0.0 in
15:24 32.2 °F 11.4 °F 1015.8 in East 13.0 mph 13.0 mph 28 % 0.0 in
15:25 32.2 °F 11.4 °F 1015.8 in SSE 9.3 mph 9.3 mph 28 % 0.0 in
15:30 32.3 °F 11.4 °F 1015.8 in ESE 14.8 mph 14.8 mph 28 % 0.0 in
15:35 32.1 °F 11.3 °F 1015.8 in NE 9.3 mph 9.3 mph 28 % 0.0 in
15:40 32.2 °F 11.9 °F 1015.8 in ENE 9.3 mph 9.3 mph 29 % 0.0 in
15:45 31.9 °F 11.7 °F 1015.8 in SSE 16.7 mph 16.7 mph 29 % 0.0 in
15:50 32.3 °F 12.0 °F 1015.8 in South 5.6 mph 5.6 mph 29 % 0.0 in
15:55 32.4 °F 12.1 °F 1015.8 in SE 7.4 mph 7.4 mph 29 % 0.0 in
16:00 32.5 °F 12.2 °F 1015.8 in South 13.0 mph 13.0 mph 29 % 0.0 in
16:05 32.6 °F 12.3 °F 1015.8 in South 14.8 mph 14.8 mph 29 % 0.0 in
16:10 32.9 °F 12.5 °F 1015.8 in East 9.3 mph 9.3 mph 29 % 0.0 in
16:15 33.0 °F 12.1 °F 1015.8 in SSE 16.7 mph 16.7 mph 28 % 0.0 in
16:20 32.6 °F 11.7 °F 1015.8 in SSE 18.5 mph 18.5 mph 28 % 0.0 in
16:25 32.8 °F 11.9 °F 1015.8 in ESE 14.8 mph 14.8 mph 28 % 0.0 in
16:30 32.3 °F 10.9 °F 1015.8 in ESE 13.0 mph 13.0 mph 27 % 0.0 in
16:35 32.4 °F 11.0 °F 1015.8 in SE 10.3 mph 10.3 mph 27 % 0.0 in
16:40 32.4 °F 10.4 °F 1015.8 in ESE 20.4 mph 20.4 mph 26 % 0.0 in
16:45 32.4 °F 10.4 °F 1015.8 in NE 11.1 mph 11.1 mph 26 % 0.0 in
16:50 32.1 °F 10.2 °F 1015.8 in ESE 13.0 mph 13.0 mph 26 % 0.0 in
16:55 32.2 °F 10.3 °F 1015.8 in South 9.3 mph 9.3 mph 26 % 0.0 in
17:00 32.6 °F 10.6 °F 1015.8 in SSE 7.4 mph 7.4 mph 26 % 0.0 in
17:05 32.5 °F 10.5 °F 1015.8 in SSE 11.1 mph 11.1 mph 26 % 0.0 in
17:10 32.5 °F 10.5 °F 1015.8 in South 12.2 mph 12.2 mph 26 % 0.0 in
17:15 32.6 °F 10.6 °F 1015.8 in SE 11.1 mph 11.1 mph 26 % 0.0 in
17:20 32.6 °F 10.6 °F 1015.8 in ESE 7.4 mph 7.4 mph 26 % 0.0 in
17:25 32.0 °F 10.1 °F 1015.8 in South 9.3 mph 9.3 mph 26 % 0.0 in
17:30 31.9 °F 10.6 °F 1015.8 in South 5.6 mph 5.6 mph 27 % 0.0 in
17:35 31.8 °F 10.5 °F 1015.8 in East 9.5 mph 9.5 mph 27 % 0.0 in
17:40 31.8 °F 10.5 °F 1015.8 in SSE 9.3 mph 9.3 mph 27 % 0.0 in
17:45 31.8 °F 10.5 °F 1015.8 in ESE 5.6 mph 5.6 mph 27 % 0.0 in
17:50 31.4 °F 10.2 °F 1015.8 in ENE 9.3 mph 9.3 mph 27 % 0.0 in
17:55 31.3 °F 10.1 °F 1015.8 in ESE 14.8 mph 14.8 mph 27 % 0.0 in
18:00 31.3 °F 10.6 °F 1015.8 in ESE 9.3 mph 9.3 mph 28 % 0.0 in
18:05 31.4 °F 10.2 °F 1015.8 in SSE 9.7 mph 9.7 mph 27 % 0.0 in
18:10 31.6 °F 10.3 °F 1015.8 in ESE 3.7 mph 5.3 mph 27 % 0.0 in
18:15 31.4 °F 10.2 °F 1015.8 in SE 11.1 mph 11.1 mph 27 % 0.0 in
18:20 31.6 °F 10.3 °F 1015.8 in SSE 5.6 mph 5.6 mph 27 % 0.0 in
18:25 31.6 °F 10.9 °F 1015.8 in South 7.4 mph 7.4 mph 28 % 0.0 in
18:30 31.4 °F 10.2 °F 1015.8 in SSW 9.3 mph 9.3 mph 27 % 0.0 in
18:35 31.6 °F 10.3 °F 1015.8 in SE 7.4 mph 7.4 mph 27 % 0.0 in
18:40 31.5 °F 10.2 °F 1015.8 in SSE 5.6 mph 5.6 mph 27 % 0.0 in
18:45 31.4 °F 10.2 °F 1015.8 in East 9.3 mph 9.3 mph 27 % 0.0 in
18:50 31.2 °F 10.0 °F 1015.8 in ESE 9.3 mph 9.3 mph 27 % 0.0 in
18:55 31.1 °F 9.9 °F 1015.8 in NE 5.6 mph 5.6 mph 27 % 0.0 in
19:00 31.2 °F 10.0 °F 1015.8 in ENE 7.4 mph 7.4 mph 27 % 0.0 in
19:05 31.1 °F 9.3 °F 1015.8 in East 9.3 mph 9.3 mph 26 % 0.0 in
19:10 30.9 °F 9.7 °F 1014.8 in East 7.4 mph 7.4 mph 27 % 0.0 in
19:15 31.0 °F 9.8 °F 1014.8 in ENE 5.6 mph 5.6 mph 27 % 0.0 in
19:20 30.9 °F 9.7 °F 1014.8 in NE 9.3 mph 9.3 mph 27 % 0.0 in
19:25 30.7 °F 10.1 °F 1014.8 in NNE 9.3 mph 9.3 mph 28 % 0.0 in
19:30 30.6 °F 10.0 °F 1014.8 in East 7.4 mph 7.4 mph 28 % 0.0 in
19:35 30.7 °F 10.1 °F 1014.8 in ESE 9.3 mph 9.3 mph 28 % 0.0 in
19:40 30.5 °F 9.9 °F 1014.8 in East 11.1 mph 11.1 mph 28 % 0.0 in
19:45 30.4 °F 9.8 °F 1014.8 in ESE 9.3 mph 9.3 mph 28 % 0.0 in
19:50 30.3 °F 9.8 °F 1014.8 in ESE 9.3 mph 9.3 mph 28 % 0.0 in
19:55 30.2 °F 10.2 °F 1014.8 in East 12.2 mph 12.2 mph 29 % 0.0 in
20:00 30.2 °F 10.2 °F 1014.8 in ESE 7.4 mph 7.4 mph 29 % 0.0 in
20:05 30.0 °F 10.0 °F 1014.8 in ESE 9.3 mph 9.3 mph 29 % 0.0 in
20:10 30.0 °F 10.0 °F 1014.8 in ENE 7.4 mph 7.4 mph 29 % 0.0 in
20:15 29.8 °F 9.8 °F 1014.8 in ESE 9.3 mph 9.3 mph 29 % 0.0 in
20:20 29.8 °F 9.8 °F 1014.8 in ESE 11.1 mph 11.1 mph 29 % 0.0 in
20:25 29.7 °F 9.8 °F 1014.8 in ESE 9.3 mph 9.3 mph 29 % 0.0 in
20:30 29.5 °F 9.6 °F 1014.8 in ESE 9.3 mph 9.3 mph 29 % 0.0 in
20:35 29.4 °F 10.0 °F 1014.8 in ESE 6.4 mph 6.4 mph 30 % 0.0 in
20:40 29.3 °F 9.9 °F 1013.8 in SSE 5.8 mph 5.8 mph 30 % 0.0 in
20:45 29.2 °F 9.8 °F 1013.8 in NE 3.7 mph 3.7 mph 30 % 0.0 in
20:50 29.0 °F 9.7 °F 1013.8 in East 9.3 mph 9.3 mph 30 % 0.0 in
20:55 28.9 °F 9.6 °F 1013.8 in ENE 3.7 mph 3.7 mph 30 % 0.0 in
21:00 28.9 °F 9.6 °F 1013.8 in ESE 7.4 mph 7.4 mph 30 % 0.0 in
21:05 28.8 °F 10.0 °F 1013.8 in East 3.9 mph 3.9 mph 31 % 0.0 in
21:10 28.7 °F 9.9 °F 1013.8 in East 7.4 mph 7.4 mph 31 % 0.0 in
21:15 28.6 °F 9.8 °F 1013.8 in ESE 9.3 mph 9.3 mph 31 % 0.0 in
21:20 28.5 °F 9.7 °F 1013.8 in East 5.6 mph 5.6 mph 31 % 0.0 in
21:25 28.4 °F 10.1 °F 1013.8 in NE 5.6 mph 5.6 mph 32 % 0.0 in
21:30 28.2 °F 10.4 °F 1013.8 in East 5.8 mph 5.8 mph 33 % 0.0 in
21:35 28.0 °F 10.7 °F 1013.8 in ENE 7.4 mph 7.4 mph 34 % 0.0 in
21:40 27.9 °F 11.0 °F 1013.8 in ENE 7.4 mph 7.4 mph 35 % 0.0 in
21:45 27.7 °F 11.3 °F 1013.8 in ESE 5.6 mph 5.6 mph 36 % 0.0 in
21:50 27.4 °F 11.8 °F 1013.8 in ENE 7.4 mph 7.4 mph 38 % 0.0 in
21:55 27.2 °F 12.1 °F 1013.8 in ENE 7.4 mph 7.4 mph 39 % 0.0 in
22:00 27.1 °F 12.7 °F 1013.8 in East 5.8 mph 5.8 mph 41 % 0.0 in
22:05 27.0 °F 13.0 °F 1013.8 in ENE 5.6 mph 5.6 mph 42 % 0.0 in
22:10 26.8 °F 13.9 °F 1012.8 in NE 5.6 mph 5.6 mph 45 % 0.0 in
22:15 26.6 °F 13.7 °F 1012.8 in North 3.7 mph 3.7 mph 45 % 0.0 in
22:20 26.5 °F 13.6 °F 1012.8 in NE 5.6 mph 5.6 mph 45 % 0.0 in
22:25 26.4 °F 13.8 °F 1013.8 in NNE 5.6 mph 5.6 mph 46 % 0.0 in
22:30 26.2 °F 13.7 °F 1013.8 in ENE 5.6 mph 5.6 mph 46 % 0.0 in
22:35 26.2 °F 14.0 °F 1013.8 in NNE 5.6 mph 5.6 mph 47 % 0.0 in
22:40 26.1 °F 13.9 °F 1013.8 in NNE 9.3 mph 9.3 mph 47 % 0.0 in
22:45 25.9 °F 14.1 °F 1013.8 in NNE 9.3 mph 9.3 mph 48 % 0.0 in
22:50 25.8 °F 13.9 °F 1013.8 in NNW 9.3 mph 9.3 mph 48 % 0.0 in
22:55 25.6 °F 13.8 °F 1014.8 in NNE 9.3 mph 9.3 mph 48 % 0.0 in
23:00 25.6 °F 13.8 °F 1014.8 in NE 5.6 mph 5.6 mph 48 % 0.0 in
23:05 25.5 °F 13.1 °F 1014.8 in ENE 9.3 mph 9.3 mph 46 % 0.0 in
23:10 25.5 °F 12.7 °F 1013.8 in NNE 10.0 mph 10.0 mph 45 % 0.0 in
23:15 25.5 °F 12.3 °F 1013.8 in North 9.3 mph 9.3 mph 44 % 0.0 in
23:20 25.4 °F 11.9 °F 1013.8 in ESE 7.4 mph 7.4 mph 43 % 0.0 in
23:25 25.5 °F 11.7 °F 1012.8 in East 7.4 mph 7.4 mph 42 % 0.0 in
23:30 25.4 °F 11.6 °F 1012.8 in ENE 9.3 mph 9.3 mph 42 % 0.0 in
23:35 25.4 °F 11.6 °F 1012.8 in ESE 11.1 mph 11.1 mph 42 % 0.0 in
23:40 25.4 °F 11.6 °F 1013.8 in East 9.3 mph 9.3 mph 42 % 0.0 in
23:45 25.3 °F 11.4 °F 1013.8 in ENE 5.0 mph 5.0 mph 42 % 0.0 in
23:50 25.3 °F 11.4 °F 1013.8 in ENE 3.7 mph 3.7 mph 42 % 0.0 in
23:55 25.3 °F 11.4 °F 1013.8 in East 3.7 mph 3.7 mph 42 % 0.0 in
Meteo Sesrovires
Elogis d' Weather Underground - 2 mb

Guio original per  Jim McMurry - jmcmurry@mwt.net Adaptat per a la plantilla per  Wim van der Kuil - Leuven-Template.eu

Trobareu la nostra informacio del temps tambe a:

Weather Underground

AWEKAS